createdAt,value
2018-12-04T00:02:07.491Z,82.19
2018-12-04T00:04:36.299Z,82.17
2018-12-04T00:07:05.757Z,82.12
2018-12-04T00:09:34.515Z,82.20
2018-12-04T00:12:03.319Z,82.26
2018-12-04T00:14:32.134Z,82.42
2018-12-04T00:17:00.944Z,82.32
2018-12-04T00:19:29.708Z,82.54
2018-12-04T00:22:04.735Z,83.00
2018-12-04T00:24:33.551Z,82.60
2018-12-04T00:27:02.287Z,82.89
2018-12-04T00:29:31.198Z,82.42
2018-12-04T00:31:59.934Z,82.50
2018-12-04T00:34:28.659Z,82.88
2018-12-04T00:36:57.484Z,82.86
2018-12-04T00:39:26.214Z,83.03
2018-12-04T00:44:54.555Z,83.17
2018-12-04T00:47:28.902Z,83.12
2018-12-04T00:49:57.627Z,83.49
2018-12-04T00:52:26.451Z,83.14
2018-12-04T00:54:55.247Z,82.96
2018-12-04T00:57:24.061Z,83.11
2018-12-04T00:59:52.856Z,83.09
2018-12-04T01:02:21.768Z,82.98
2018-12-04T01:04:50.504Z,83.08
2018-12-04T01:07:19.663Z,83.07
2018-12-04T01:09:48.707Z,82.79
2018-12-04T01:12:17.578Z,82.56
2018-12-04T01:14:46.476Z,82.91
2018-12-04T01:17:15.250Z,82.69
2018-12-04T01:19:44.018Z,82.40
2018-12-04T01:22:12.789Z,82.53
2018-12-04T01:24:41.948Z,82.42
2018-12-04T01:27:10.743Z,82.23
2018-12-04T01:29:39.468Z,82.47
2018-12-04T01:32:09.415Z,81.99
2018-12-04T01:34:38.130Z,82.16
2018-12-04T01:37:06.934Z,81.99
2018-12-04T01:39:35.663Z,81.47
2018-12-04T01:42:05.204Z,81.38
2018-12-04T01:44:34.103Z,81.02
2018-12-04T01:47:02.892Z,81.28
2018-12-04T01:49:31.918Z,81.14
2018-12-04T01:52:00.712Z,80.58
2018-12-04T01:54:29.593Z,80.80
2018-12-04T01:56:58.407Z,79.80
2018-12-04T01:59:27.154Z,80.38
2018-12-04T02:01:56.023Z,80.36
2018-12-04T02:04:24.743Z,80.11
2018-12-04T02:06:53.492Z,80.13
2018-12-04T02:09:22.206Z,80.24
2018-12-04T02:11:50.983Z,79.66
2018-12-04T02:14:19.705Z,79.54
2018-12-04T02:16:48.640Z,79.86
2018-12-04T02:19:17.485Z,79.78
2018-12-04T02:21:46.254Z,80.18
2018-12-04T02:24:15.026Z,80.02
2018-12-04T02:26:43.980Z,79.68
2018-12-04T02:29:12.874Z,79.54
2018-12-04T02:31:41.646Z,79.63
2018-12-04T02:34:10.427Z,79.50
2018-12-04T02:36:39.289Z,79.27
2018-12-04T02:39:08.712Z,78.90
2018-12-04T02:41:37.559Z,78.86
2018-12-04T02:44:06.441Z,78.48
2018-12-04T02:46:35.260Z,78.21
2018-12-04T02:49:04.648Z,78.42
2018-12-04T02:51:34.787Z,78.42
2018-12-04T02:54:03.588Z,78.47
2018-12-04T02:56:32.468Z,78.48
2018-12-04T02:59:01.549Z,78.44
2018-12-04T03:01:30.733Z,78.57
2018-12-04T03:03:59.592Z,78.13
2018-12-04T03:06:28.643Z,78.45
2018-12-04T03:08:57.363Z,78.34
2018-12-04T03:11:26.179Z,78.42
2018-12-04T03:13:55.022Z,78.65
2018-12-04T03:16:23.751Z,78.33
2018-12-04T03:18:52.492Z,78.57
2018-12-04T03:21:21.234Z,78.32
2018-12-04T03:23:50.072Z,78.74
2018-12-04T03:26:18.858Z,78.57
2018-12-04T03:28:47.679Z,78.94
2018-12-04T03:31:16.444Z,78.21
2018-12-04T03:33:45.227Z,78.57
2018-12-04T03:36:14.247Z,78.54
2018-12-04T03:38:43.288Z,78.50
2018-12-04T03:41:12.331Z,78.62
2018-12-04T03:43:41.255Z,78.57
2018-12-04T03:46:10.004Z,78.69
2018-12-04T03:48:38.779Z,78.78
2018-12-04T03:51:07.586Z,78.71
2018-12-04T03:53:36.449Z,78.21
2018-12-04T03:56:05.611Z,78.56
2018-12-04T03:58:34.343Z,78.60
2018-12-04T04:01:03.328Z,78.83
2018-12-04T04:03:33.075Z,78.80
2018-12-04T04:06:02.024Z,78.85
2018-12-04T04:08:30.924Z,78.71
2018-12-04T04:10:59.702Z,78.90
2018-12-04T04:13:28.440Z,78.76
2018-12-04T04:15:57.315Z,79.04
2018-12-04T04:18:26.208Z,79.20
2018-12-04T04:20:54.935Z,78.86
2018-12-04T04:23:23.680Z,79.18
2018-12-04T04:25:52.492Z,78.92
2018-12-04T04:28:21.425Z,79.00
2018-12-04T04:30:50.288Z,79.30
2018-12-04T04:33:19.083Z,78.99
2018-12-04T04:35:49.781Z,79.03
2018-12-04T04:38:18.560Z,79.30
2018-12-04T04:40:47.347Z,79.44
2018-12-04T04:43:16.089Z,79.17
2018-12-04T04:45:44.996Z,78.70
2018-12-04T04:48:13.707Z,79.24
2018-12-04T04:50:42.495Z,79.01
2018-12-04T04:53:11.217Z,78.75
2018-12-04T04:55:40.058Z,79.05
2018-12-04T04:58:09.938Z,78.74
2018-12-04T05:00:39.040Z,78.57
2018-12-04T05:03:08.792Z,78.57
2018-12-04T05:05:40.019Z,78.95
2018-12-04T05:08:08.864Z,78.90
2018-12-04T05:10:37.681Z,78.63
2018-12-04T05:13:06.544Z,78.92
2018-12-04T05:15:35.469Z,79.03
2018-12-04T05:18:05.114Z,79.15
2018-12-04T05:20:33.927Z,79.25
2018-12-04T05:23:02.748Z,79.33
2018-12-04T05:25:31.708Z,78.98
2018-12-04T05:28:00.581Z,79.47
2018-12-04T05:30:29.329Z,79.00
2018-12-04T05:32:58.225Z,78.98
2018-12-04T05:35:26.948Z,79.39
2018-12-04T05:37:55.663Z,79.38
2018-12-04T05:40:24.470Z,79.04
2018-12-04T05:42:53.195Z,78.74
2018-12-04T05:45:21.942Z,78.79
2018-12-04T05:47:50.659Z,78.96
2018-12-04T05:50:19.718Z,79.19
2018-12-04T05:52:58.525Z,78.64
2018-12-04T05:55:27.513Z,78.95
2018-12-04T05:57:56.240Z,78.68
2018-12-04T06:00:25.307Z,78.70
2018-12-04T06:02:54.053Z,78.37
2018-12-04T06:05:22.840Z,79.11
2018-12-04T06:07:51.947Z,78.73
2018-12-04T06:10:20.659Z,78.34
2018-12-04T06:12:49.437Z,78.84
2018-12-04T06:15:18.232Z,78.79
2018-12-04T06:17:46.959Z,78.71
2018-12-04T06:20:15.767Z,79.00
2018-12-04T06:22:44.631Z,79.84
2018-12-04T06:25:13.575Z,79.30
2018-12-04T06:27:42.497Z,78.46
2018-12-04T06:30:11.363Z,78.77
2018-12-04T06:32:40.163Z,78.76
2018-12-04T06:35:09.060Z,79.22
2018-12-04T06:37:37.775Z,78.91
2018-12-04T06:40:06.667Z,79.08
2018-12-04T06:42:35.556Z,79.19
2018-12-04T06:45:05.258Z,79.01
2018-12-04T06:47:40.728Z,78.86
2018-12-04T06:50:10.911Z,78.76
2018-12-04T06:52:39.760Z,78.55
2018-12-04T06:55:09.103Z,77.76
2018-12-04T06:57:37.827Z,78.36
2018-12-04T07:00:07.846Z,78.52
2018-12-04T07:02:37.631Z,78.44
2018-12-04T07:05:06.777Z,78.73
2018-12-04T07:07:35.684Z,78.72
2018-12-04T07:10:11.787Z,78.30
2018-12-04T07:12:40.610Z,78.53
2018-12-04T07:15:09.327Z,78.69
2018-12-04T07:17:38.158Z,78.40
2018-12-04T07:20:08.274Z,78.39
2018-12-04T07:22:37.095Z,78.55
2018-12-04T07:25:06.803Z,78.97
2018-12-04T07:27:35.520Z,79.45
2018-12-04T07:30:07.135Z,79.15
2018-12-04T07:32:38.726Z,79.38
2018-12-04T07:35:08.207Z,79.51
2018-12-04T07:37:37.030Z,79.61
2018-12-04T07:40:06.967Z,79.74
2018-12-04T07:42:35.694Z,80.02
2018-12-04T07:45:05.691Z,80.69
2018-12-04T07:47:34.474Z,80.37
2018-12-04T07:50:03.388Z,80.61
2018-12-04T07:52:32.107Z,80.50
2018-12-04T07:55:00.834Z,80.50
2018-12-04T07:57:29.636Z,80.73
2018-12-04T07:59:58.420Z,80.46
2018-12-04T08:02:27.159Z,80.61
2018-12-04T08:04:55.891Z,80.94
2018-12-04T08:07:24.629Z,81.16
2018-12-04T08:09:53.349Z,80.97
2018-12-04T08:12:22.159Z,81.26
2018-12-04T08:14:51.048Z,80.92
2018-12-04T08:17:19.788Z,81.46
2018-12-04T08:19:48.552Z,81.21
2018-12-04T08:22:17.363Z,81.05
2018-12-04T08:24:46.223Z,81.09
2018-12-04T08:27:20.075Z,81.47
2018-12-04T08:29:48.810Z,81.28
2018-12-04T08:32:17.691Z,81.41
2018-12-04T08:34:46.500Z,81.56
2018-12-04T08:37:15.362Z,81.37
2018-12-04T08:39:44.395Z,81.21
2018-12-04T08:42:13.291Z,81.70
2018-12-04T08:44:42.025Z,81.57
2018-12-04T08:47:10.875Z,81.36
2018-12-04T08:49:40.169Z,81.28
2018-12-04T08:52:09.022Z,81.32
2018-12-04T08:54:37.882Z,81.51
2018-12-04T08:57:06.740Z,81.24
2018-12-04T08:59:35.544Z,81.17
2018-12-04T09:02:05.708Z,81.06
2018-12-04T09:04:34.447Z,80.86
2018-12-04T09:07:03.370Z,80.75
2018-12-04T09:09:32.143Z,80.93
2018-12-04T09:12:01.075Z,80.68
2018-12-04T09:14:30.158Z,80.39
2018-12-04T09:16:59.003Z,80.11
2018-12-04T09:19:27.762Z,80.35
2018-12-04T09:21:56.625Z,80.02
2018-12-04T09:24:30.549Z,79.82
2018-12-04T09:26:56.201Z,79.67
2018-12-04T09:29:24.986Z,79.84
2018-12-04T09:31:53.956Z,79.65
2018-12-04T09:34:22.814Z,79.80
2018-12-04T09:36:51.535Z,79.44
2018-12-04T09:39:20.276Z,79.31
2018-12-04T09:41:49.277Z,79.16
2018-12-04T09:44:18.061Z,79.26
2018-12-04T09:46:46.782Z,79.53
2018-12-04T09:49:15.605Z,79.13
2018-12-04T09:51:45.461Z,79.17
2018-12-04T09:54:14.356Z,78.39
2018-12-04T09:56:43.423Z,78.34
2018-12-04T09:59:12.246Z,78.57
2018-12-04T10:01:40.979Z,78.64
2018-12-04T10:04:09.767Z,77.60
2018-12-04T10:06:38.583Z,77.03
2018-12-04T10:09:09.045Z,77.00
2018-12-04T10:11:38.238Z,77.07
2018-12-04T10:14:07.227Z,76.70
2018-12-04T10:16:36.203Z,75.85
2018-12-04T10:19:05.014Z,75.81
2018-12-04T10:21:33.747Z,75.11
2018-12-04T10:24:02.695Z,75.60
2018-12-04T10:26:31.521Z,75.58
2018-12-04T10:29:00.372Z,75.17
2018-12-04T10:31:29.246Z,73.79
2018-12-04T10:33:58.111Z,74.28
2018-12-04T10:36:28.319Z,73.64
2018-12-04T10:38:57.142Z,73.26
2018-12-04T10:41:25.883Z,73.50
2018-12-04T10:43:54.640Z,73.72
2018-12-04T10:46:23.487Z,73.66
2018-12-04T10:48:52.570Z,73.56
2018-12-04T10:51:21.492Z,73.06
2018-12-04T10:53:50.284Z,72.70
2018-12-04T10:56:19.155Z,72.32
2018-12-04T10:58:48.149Z,72.26
2018-12-04T11:01:25.556Z,72.99
2018-12-04T11:03:54.579Z,72.37
2018-12-04T11:06:23.440Z,72.08
2018-12-04T11:08:52.303Z,71.96
2018-12-04T11:11:21.112Z,71.66
2018-12-04T11:13:49.906Z,71.59
2018-12-04T11:16:18.847Z,72.04
2018-12-04T11:18:47.726Z,71.30
2018-12-04T11:21:16.686Z,71.49
2018-12-04T11:23:45.430Z,71.56
2018-12-04T11:26:14.257Z,71.07
2018-12-04T11:28:43.083Z,71.21
2018-12-04T11:31:12.137Z,70.48
2018-12-04T11:33:41.255Z,70.90
2018-12-04T11:36:10.085Z,70.33
2018-12-04T11:38:38.829Z,70.97
2018-12-04T11:41:07.700Z,70.49
2018-12-04T11:43:36.539Z,70.26
2018-12-04T11:46:05.381Z,69.71
2018-12-04T11:48:34.135Z,69.39
2018-12-04T11:51:02.878Z,69.50
2018-12-04T11:53:31.807Z,69.20
2018-12-04T11:56:00.565Z,69.03
2018-12-04T11:58:29.341Z,69.09
2018-12-04T12:00:58.449Z,68.95
2018-12-04T12:03:27.168Z,68.96
2018-12-04T12:05:55.964Z,68.94
2018-12-04T12:08:26.699Z,68.43
2018-12-04T12:10:55.476Z,68.05
2018-12-04T12:13:24.360Z,68.55
2018-12-04T12:15:53.100Z,68.75
2018-12-04T12:18:21.807Z,67.89
2018-12-04T12:20:50.611Z,67.36
2018-12-04T12:23:19.424Z,66.58
2018-12-04T12:25:48.286Z,66.78
2018-12-04T12:28:17.716Z,67.37
2018-12-04T12:30:46.456Z,67.30
2018-12-04T12:33:15.187Z,66.07
2018-12-04T12:35:43.934Z,66.34
2018-12-04T12:38:13.255Z,65.76
2018-12-04T12:40:42.066Z,65.66
2018-12-04T12:43:10.956Z,65.54
2018-12-04T12:45:39.767Z,65.09
2018-12-04T12:48:08.735Z,65.31
2018-12-04T12:50:37.485Z,65.61
2018-12-04T12:53:06.211Z,66.55
2018-12-04T12:55:35.016Z,65.67
2018-12-04T12:58:04.723Z,65.81
2018-12-04T13:00:33.591Z,65.17
2018-12-04T13:03:02.358Z,66.24
2018-12-04T13:05:31.600Z,66.78
2018-12-04T13:08:01.520Z,66.83
2018-12-04T13:10:30.341Z,66.24
2018-12-04T13:12:59.165Z,66.22
2018-12-04T13:15:28.028Z,65.15
2018-12-04T13:17:56.846Z,64.31
2018-12-04T13:20:25.740Z,64.04
2018-12-04T13:22:54.535Z,64.83
2018-12-04T13:25:23.392Z,64.07
2018-12-04T13:27:52.191Z,64.10
2018-12-04T13:30:21.063Z,64.26
2018-12-04T13:32:50.053Z,64.19
2018-12-04T13:35:18.922Z,64.58
2018-12-04T13:37:47.794Z,64.57
2018-12-04T13:40:16.650Z,64.49
2018-12-04T13:42:45.720Z,64.39
2018-12-04T13:45:14.627Z,64.24
2018-12-04T13:47:43.708Z,64.28
2018-12-04T13:50:12.927Z,64.32
2018-12-04T13:52:42.076Z,64.09
2018-12-04T13:55:10.956Z,63.94
2018-12-04T13:57:39.782Z,63.83
2018-12-04T14:00:09.358Z,64.30
2018-12-04T14:02:38.212Z,64.58
2018-12-04T14:05:08.972Z,64.47
2018-12-04T14:07:38.016Z,64.24
2018-12-04T14:10:08.883Z,64.53
2018-12-04T14:12:37.808Z,64.89
2018-12-04T14:15:07.390Z,64.86
2018-12-04T14:17:36.227Z,64.00
2018-12-04T14:20:06.771Z,64.07
2018-12-04T14:22:35.863Z,64.32
2018-12-04T14:25:05.164Z,64.60
2018-12-04T14:27:34.031Z,64.95
2018-12-04T14:30:02.961Z,64.61
2018-12-04T14:32:32.299Z,64.17
2018-12-04T14:35:01.172Z,64.06
2018-12-04T14:37:31.639Z,64.45
2018-12-04T14:40:00.411Z,65.32
2018-12-04T14:42:29.370Z,65.40
2018-12-04T14:44:58.335Z,66.42
2018-12-04T14:47:27.149Z,66.51
2018-12-04T14:49:55.970Z,66.53
2018-12-04T14:52:24.955Z,66.60
2018-12-04T14:55:09.395Z,66.89
2018-12-04T14:57:38.513Z,67.33
2018-12-04T15:00:10.312Z,67.20
2018-12-04T15:02:40.886Z,67.71
2018-12-04T15:05:10.055Z,67.80
2018-12-04T15:07:38.945Z,67.37
2018-12-04T15:10:09.732Z,67.73
2018-12-04T15:12:38.687Z,67.79
2018-12-04T15:15:07.928Z,68.48
2018-12-04T15:17:36.910Z,68.65
2018-12-04T15:20:07.035Z,68.77
2018-12-04T15:22:35.983Z,69.12
2018-12-04T15:25:05.379Z,69.68
2018-12-04T15:27:34.200Z,69.44
2018-12-04T15:30:03.575Z,69.44
2018-12-04T15:32:32.433Z,69.89
2018-12-04T15:35:01.657Z,69.65
2018-12-04T15:37:31.503Z,70.00
2018-12-04T15:40:00.431Z,69.90
2018-12-04T15:42:29.183Z,70.07
2018-12-04T15:44:57.960Z,69.66
2018-12-04T15:47:26.747Z,70.29
2018-12-04T15:49:55.599Z,70.23
2018-12-04T15:52:24.739Z,70.27
2018-12-04T15:54:53.537Z,70.52
2018-12-04T15:57:23.307Z,70.26
2018-12-04T15:59:52.463Z,70.69
2018-12-04T16:02:43.154Z,70.47
2018-12-04T16:05:12.358Z,71.07
2018-12-04T16:07:41.169Z,70.98
2018-12-04T16:10:12.704Z,71.06
2018-12-04T16:12:41.444Z,71.11
2018-12-04T16:15:10.625Z,71.57
2018-12-04T16:17:45.964Z,71.37
2018-12-04T16:20:15.047Z,71.37
2018-12-04T16:22:44.807Z,71.84
2018-12-04T16:25:13.632Z,71.90
2018-12-04T16:27:42.392Z,71.92
2018-12-04T16:30:11.295Z,71.83
2018-12-04T16:32:40.331Z,71.98
2018-12-04T16:35:09.362Z,72.14
2018-12-04T16:37:38.160Z,72.28
2018-12-04T16:40:07.899Z,72.33
2018-12-04T16:42:36.646Z,72.25
2018-12-04T16:45:05.771Z,72.69
2018-12-04T16:47:34.625Z,72.62
2018-12-04T16:50:03.652Z,72.97
2018-12-04T16:52:32.375Z,73.03
2018-12-04T16:55:01.390Z,73.17
2018-12-04T16:57:30.243Z,73.41
2018-12-04T16:59:59.045Z,73.47
2018-12-04T17:02:28.271Z,73.58
2018-12-04T17:04:57.048Z,73.70
2018-12-04T17:07:25.840Z,73.33
2018-12-04T17:09:54.620Z,73.96
2018-12-04T17:12:23.415Z,73.62
2018-12-04T17:14:52.403Z,73.64
2018-12-04T17:17:21.215Z,73.72
2018-12-04T17:19:50.019Z,73.75
2018-12-04T17:22:18.899Z,74.16
2018-12-04T17:24:47.664Z,74.39
2018-12-04T17:27:16.538Z,74.22
2018-12-04T17:29:45.280Z,74.39
2018-12-04T17:32:14.100Z,74.57
2018-12-04T17:34:43.181Z,74.71
2018-12-04T17:37:12.173Z,76.27
2018-12-04T17:39:40.898Z,75.68
2018-12-04T17:42:09.731Z,75.47
2018-12-04T17:44:40.398Z,75.13
2018-12-04T17:47:09.369Z,74.98
2018-12-04T17:49:38.116Z,76.25
2018-12-04T17:52:13.957Z,75.25
2018-12-04T17:54:42.680Z,74.69
2018-12-04T17:57:11.744Z,74.50
2018-12-04T17:59:42.467Z,74.32
2018-12-04T18:02:13.474Z,74.41
2018-12-04T18:04:42.330Z,74.57
2018-12-04T18:07:13.087Z,74.27
2018-12-04T18:09:42.967Z,74.37
2018-12-04T18:12:13.779Z,74.69
2018-12-04T18:14:44.517Z,74.86
2018-12-04T18:17:13.568Z,75.28
2018-12-04T18:19:42.337Z,75.12
2018-12-04T18:22:11.174Z,74.96
2018-12-04T18:24:40.172Z,74.90
2018-12-04T18:27:09.154Z,74.92
2018-12-04T18:29:38.155Z,74.50
2018-12-04T18:32:07.264Z,74.75
2018-12-04T18:34:36.022Z,74.58
2018-12-04T18:37:04.835Z,74.89
2018-12-04T18:39:33.811Z,75.00
2018-12-04T18:42:02.892Z,75.05
2018-12-04T18:44:33.735Z,74.77
2018-12-04T18:47:02.956Z,75.28
2018-12-04T18:49:32.027Z,74.86
2018-12-04T18:52:00.935Z,75.29
2018-12-04T18:54:29.798Z,74.90
2018-12-04T18:56:58.611Z,75.00
2018-12-04T18:59:28.295Z,74.62
2018-12-04T19:01:57.198Z,74.74
2018-12-04T19:04:26.276Z,74.83
2018-12-04T19:06:57.839Z,74.58
2018-12-04T19:09:26.705Z,74.68
2018-12-04T19:11:55.645Z,74.70
2018-12-04T19:14:25.019Z,74.83
2018-12-04T19:16:54.500Z,74.93
2018-12-04T19:19:24.531Z,74.74
2018-12-04T19:21:53.922Z,74.71
2018-12-04T19:24:23.398Z,74.53
2018-12-04T19:26:52.125Z,74.51
2018-12-04T19:29:21.430Z,74.72
2018-12-04T19:31:50.542Z,74.89
2018-12-04T19:34:19.340Z,74.98
2018-12-04T19:36:48.335Z,74.87
2018-12-04T19:39:17.327Z,75.07
2018-12-04T19:41:46.312Z,75.04
2018-12-04T19:44:15.311Z,75.09
2018-12-04T19:46:44.375Z,74.94
2018-12-04T19:49:13.112Z,74.90
2018-12-04T19:51:41.953Z,75.13
2018-12-04T19:54:11.039Z,75.00
2018-12-04T19:56:40.413Z,75.29
2018-12-04T19:59:09.724Z,75.60
2018-12-04T20:01:38.635Z,75.37
2018-12-04T20:04:07.473Z,75.35
2018-12-04T20:06:36.212Z,75.42
2018-12-04T20:09:07.275Z,75.34
2018-12-04T20:11:38.278Z,75.67
2018-12-04T20:14:07.051Z,75.86
2018-12-04T20:16:35.772Z,75.71
2018-12-04T20:19:05.119Z,76.02
2018-12-04T20:21:34.324Z,75.65
2018-12-04T20:24:03.180Z,76.14
2018-12-04T20:26:31.944Z,76.29
2018-12-04T20:29:00.916Z,76.48
2018-12-04T20:31:29.679Z,76.67
2018-12-04T20:33:58.409Z,76.62
2018-12-04T20:36:27.123Z,76.21
2018-12-04T20:38:55.859Z,76.42
2018-12-04T20:41:24.672Z,76.48
2018-12-04T20:43:53.577Z,76.05
2018-12-04T20:46:22.680Z,76.15
2018-12-04T20:48:51.502Z,76.22
2018-12-04T20:51:20.245Z,76.00
2018-12-04T20:53:49.040Z,76.44
2018-12-04T20:56:17.840Z,76.55
2018-12-04T20:58:46.647Z,76.22
2018-12-04T21:01:15.743Z,76.46
2018-12-04T21:03:45.952Z,76.38
2018-12-04T21:06:14.715Z,76.64
2018-12-04T21:08:43.559Z,76.42
2018-12-04T21:11:12.509Z,76.50
2018-12-04T21:13:41.483Z,76.74
2018-12-04T21:16:10.207Z,76.57
2018-12-04T21:18:38.939Z,76.26
2018-12-04T21:21:08.236Z,76.32
2018-12-04T21:23:37.151Z,76.42
2018-12-04T21:26:06.027Z,76.61
2018-12-04T21:28:34.752Z,76.55
2018-12-04T21:31:10.060Z,76.71
2018-12-04T21:33:44.142Z,76.61
2018-12-04T21:36:18.512Z,76.56
2018-12-04T21:38:53.406Z,76.52
2018-12-04T21:44:20.441Z,76.46
2018-12-04T21:46:54.761Z,76.02
2018-12-04T21:49:24.502Z,76.47
2018-12-04T21:51:53.523Z,76.47
2018-12-04T21:54:22.491Z,76.84
2018-12-04T21:56:51.551Z,76.61
2018-12-04T21:59:20.454Z,76.92
2018-12-04T22:01:49.543Z,76.23
2018-12-04T22:04:18.383Z,76.24
2018-12-04T22:06:47.199Z,76.35
2018-12-04T22:09:15.944Z,76.00
2018-12-04T22:11:44.803Z,76.04
2018-12-04T22:14:13.668Z,76.04
2018-12-04T22:16:42.466Z,75.96
2018-12-04T22:19:11.271Z,76.04
2018-12-04T22:21:40.171Z,75.66
2018-12-04T22:24:09.260Z,75.77
2018-12-04T22:26:38.071Z,75.86
2018-12-04T22:29:06.856Z,76.33
2018-12-04T22:31:35.956Z,76.13
2018-12-04T22:34:05.307Z,75.75
2018-12-04T22:36:34.059Z,75.95
2018-12-04T22:39:04.974Z,75.98
2018-12-04T22:41:35.715Z,76.52
2018-12-04T22:44:05.141Z,76.46
2018-12-04T22:46:33.879Z,76.43
2018-12-04T22:49:03.613Z,76.18
2018-12-04T22:51:32.438Z,76.29
2018-12-04T22:54:01.378Z,76.17
2018-12-04T22:56:30.154Z,75.92
2018-12-04T22:58:59.064Z,75.97
2018-12-04T23:01:38.435Z,75.65
2018-12-04T23:04:07.555Z,75.75
2018-12-04T23:06:36.921Z,75.75
2018-12-04T23:09:08.979Z,75.70
2018-12-04T23:11:39.883Z,75.81
2018-12-04T23:14:08.811Z,76.13
2018-12-04T23:16:39.116Z,76.14
2018-12-04T23:19:07.859Z,76.44
2018-12-04T23:21:36.657Z,76.33
2018-12-04T23:24:05.847Z,76.21
2018-12-04T23:26:34.876Z,76.20
2018-12-04T23:29:04.007Z,76.16
2018-12-04T23:31:32.747Z,76.52
2018-12-04T23:34:01.466Z,76.40
2018-12-04T23:36:30.203Z,76.21
2018-12-04T23:38:59.016Z,76.47
2018-12-04T23:41:27.831Z,76.09
2018-12-04T23:43:56.630Z,76.43
2018-12-04T23:46:25.641Z,76.49
2018-12-04T23:48:54.525Z,76.36
2018-12-04T23:51:23.299Z,76.50
2018-12-04T23:53:52.187Z,76.48
2018-12-04T23:56:21.227Z,76.70
2018-12-04T23:58:50.294Z,76.55
